Time;durP1;ratioP1;P1;durP2;ratioP2;P2;SDS_P1;SDS_P2;PMS_P1;PMS_P2;Temp;Humidity;BMP_temperature;BMP_pressure;BME280_temperature;BME280_humidity;BME280_pressure;Samples;Min_cycle;Max_cycle;Signal;HPM_P1;HPM_P2
2023/11/27 00:02:06;;;;;;;31.25;15.30;;;-3.50;99.90;;;;;;5068950;28;20025;-75
2023/11/27 00:04:32;;;;;;;32.20;15.82;;;-3.50;99.90;;;;;;5069039;28;20026;-75
2023/11/27 00:06:58;;;;;;;25.67;14.13;;;-3.40;99.90;;;;;;5072720;28;20546;-75
2023/11/27 00:09:23;;;;;;;28.27;14.48;;;-3.40;99.90;;;;;;5073822;28;20142;-76
2023/11/27 00:11:49;;;;;;;26.20;13.43;;;-3.30;99.90;;;;;;5072695;28;20067;-76
2023/11/27 00:14:15;;;;;;;30.25;14.43;;;-3.30;99.90;;;;;;5072480;28;20373;-75
2023/11/27 00:16:40;;;;;;;25.40;14.18;;;-3.30;99.90;;;;;;5072526;28;20021;-75
2023/11/27 00:19:07;;;;;;;25.42;13.75;;;-3.30;99.90;;;;;;5073495;28;20068;-78
2023/11/27 00:21:33;;;;;;;25.90;13.07;;;-3.30;99.90;;;;;;5073851;28;20028;-78
2023/11/27 00:23:59;;;;;;;27.60;15.05;;;-3.40;99.90;;;;;;5073373;28;20009;-79
2023/11/27 00:26:25;;;;;;;27.40;13.27;;;-3.30;99.90;;;;;;5072299;28;20044;-78
2023/11/27 00:28:51;;;;;;;29.95;13.07;;;-3.40;99.90;;;;;;5072218;28;20078;-79
2023/11/27 00:31:16;;;;;;;23.42;11.55;;;-3.30;99.90;;;;;;5072084;28;20020;-78
2023/11/27 00:33:45;;;;;;;25.95;12.88;;;-3.30;99.90;;;;;;5072106;28;20021;-78
2023/11/27 00:36:12;;;;;;;21.45;12.48;;;-3.30;99.90;;;;;;5073163;28;20025;-78
2023/11/27 00:38:38;;;;;;;22.42;12.40;;;-3.30;99.90;;;;;;5073329;28;20021;-75
2023/11/27 00:41:05;;;;;;;21.50;12.15;;;-3.30;99.90;;;;;;5071920;28;20027;-75
2023/11/27 00:43:31;;;;;;;22.35;13.25;;;-3.30;99.90;;;;;;5071697;28;20050;-75
2023/11/27 00:45:57;;;;;;;26.45;12.27;;;-3.30;99.90;;;;;;5073396;28;20059;-78
2023/11/27 00:48:22;;;;;;;22.10;13.63;;;-3.20;99.90;;;;;;5071746;28;20009;-78
2023/11/27 00:50:48;;;;;;;20.15;12.20;;;-3.20;99.90;;;;;;5071403;28;20017;-78
2023/11/27 00:53:13;;;;;;;19.83;10.63;;;-3.20;99.90;;;;;;5071786;28;20041;-75
2023/11/27 00:55:39;;;;;;;21.92;11.80;;;-3.20;99.90;;;;;;5073110;28;20032;-78
2023/11/27 00:58:05;;;;;;;20.50;11.40;;;-3.30;99.90;;;;;;5072653;28;20039;-75
2023/11/27 01:00:31;;;;;;;15.57;9.63;;;-3.20;99.90;;;;;;5071880;28;20028;-78
2023/11/27 01:02:56;;;;;;;17.88;11.23;;;-3.20;99.90;;;;;;5072908;28;20381;-76
2023/11/27 01:05:23;;;;;;;21.77;10.80;;;-3.30;99.90;;;;;;5065846;28;20055;-75
2023/11/27 01:07:50;;;;;;;20.70;10.85;;;-3.30;99.90;;;;;;5069291;28;20587;-78
2023/11/27 01:10:17;;;;;;;20.95;10.48;;;-3.30;99.90;;;;;;5071430;28;20032;-78
2023/11/27 01:12:43;;;;;;;22.98;11.90;;;-3.30;99.90;;;;;;5071557;28;20057;-76
2023/11/27 01:15:12;;;;;;;26.10;12.20;;;-3.30;99.90;;;;;;5071660;28;20359;-75
2023/11/27 01:17:38;;;;;;;18.50;11.93;;;-3.30;99.90;;;;;;5072573;28;20040;-75
2023/11/27 01:20:07;;;;;;;22.27;12.40;;;-3.30;99.90;;;;;;5072713;28;20017;-79
2023/11/27 01:22:34;;;;;;;18.13;10.63;;;-3.30;99.90;;;;;;5072763;28;20016;-75
2023/11/27 01:25:00;;;;;;;24.70;12.10;;;-3.30;99.90;;;;;;5072599;28;20064;-78
2023/11/27 01:27:26;;;;;;;20.02;11.43;;;-3.30;99.90;;;;;;5072507;28;20084;-78
2023/11/27 01:29:51;;;;;;;20.98;12.35;;;-3.20;99.90;;;;;;5072682;28;20490;-78
2023/11/27 01:32:17;;;;;;;16.85;10.00;;;-3.20;99.90;;;;;;5072148;28;20531;-75
2023/11/27 01:34:42;;;;;;;19.90;11.05;;;-3.20;99.90;;;;;;5071351;28;20107;-79
2023/11/27 01:37:08;;;;;;;16.58;10.23;;;-3.20;99.90;;;;;;5072421;28;20029;-78
2023/11/27 01:39:36;;;;;;;24.10;10.88;;;-3.20;99.90;;;;;;5071344;28;20027;-76
2023/11/27 01:42:04;;;;;;;20.98;11.38;;;-3.20;99.90;;;;;;5070616;28;20020;-76
2023/11/27 01:44:30;;;;;;;18.65;10.13;;;-3.20;99.90;;;;;;5071010;28;20029;-78
2023/11/27 01:46:58;;;;;;;21.48;10.55;;;-3.20;99.90;;;;;;5070928;28;20086;-78
2023/11/27 01:49:24;;;;;;;16.88;10.32;;;-3.20;99.90;;;;;;5070994;28;20375;-78
2023/11/27 01:51:50;;;;;;;19.50;10.82;;;-3.20;99.90;;;;;;5072304;28;20032;-78
2023/11/27 01:54:16;;;;;;;17.67;10.63;;;-3.20;99.90;;;;;;5072407;28;20103;-75
2023/11/27 01:56:47;;;;;;;20.58;10.32;;;-3.20;99.90;;;;;;5072118;28;20110;-75
2023/11/27 01:59:13;;;;;;;15.88;9.95;;;-3.20;99.90;;;;;;5072494;28;20059;-76
2023/11/27 02:01:39;;;;;;;17.27;9.90;;;-3.20;99.90;;;;;;5073970;28;20422;-78
2023/11/27 02:04:05;;;;;;;19.85;10.82;;;-3.20;99.90;;;;;;5076272;28;20449;-78
2023/11/27 02:06:31;;;;;;;18.52;10.77;;;-3.10;99.90;;;;;;5074928;28;20021;-75
2023/11/27 02:08:57;;;;;;;21.48;10.63;;;-3.20;99.90;;;;;;5075132;28;20027;-75
2023/11/27 02:11:25;;;;;;;18.75;10.93;;;-3.20;99.90;;;;;;5074748;28;20033;-75
2023/11/27 02:13:50;;;;;;;19.15;11.02;;;-3.10;99.90;;;;;;5076202;28;20569;-79
2023/11/27 02:16:16;;;;;;;17.00;10.80;;;-3.20;99.90;;;;;;5074072;28;20017;-75
2023/11/27 02:18:43;;;;;;;17.33;10.13;;;-3.10;99.90;;;;;;5074449;28;20082;-75
2023/11/27 02:21:11;;;;;;;14.05;9.23;;;-3.20;99.90;;;;;;5075780;28;20028;-75
2023/11/27 02:23:39;;;;;;;16.45;9.88;;;-3.10;99.90;;;;;;5067421;28;20112;-78
2023/11/27 02:26:06;;;;;;;20.98;11.95;;;-3.10;99.90;;;;;;5074456;28;20013;-78
2023/11/27 02:28:32;;;;;;;24.55;10.00;;;-3.10;99.90;;;;;;5074490;28;20021;-75
2023/11/27 02:30:58;;;;;;;23.55;11.38;;;-3.10;99.90;;;;;;5074548;28;20020;-75
2023/11/27 02:33:26;;;;;;;16.02;10.20;;;-3.10;99.90;;;;;;5075520;28;20454;-75
2023/11/27 02:35:53;;;;;;;21.67;10.88;;;-3.10;99.90;;;;;;5075677;28;20021;-75
2023/11/27 02:38:19;;;;;;;18.45;10.65;;;-3.10;99.90;;;;;;5075455;28;20032;-75
2023/11/27 02:40:45;;;;;;;20.63;10.27;;;-3.00;99.90;;;;;;5074356;28;20077;-75
2023/11/27 02:43:11;;;;;;;21.80;11.10;;;-3.00;99.90;;;;;;5074285;28;20534;-78
2023/11/27 02:45:37;;;;;;;18.80;10.60;;;-3.00;99.90;;;;;;5074249;28;20028;-78
2023/11/27 02:48:03;;;;;;;14.70;10.07;;;-3.00;99.90;;;;;;5074053;28;20386;-75
2023/11/27 02:50:28;;;;;;;21.25;11.07;;;-2.90;99.90;;;;;;5074497;28;20024;-79
2023/11/27 02:52:55;;;;;;;16.38;11.18;;;-2.90;99.90;;;;;;5075377;28;20021;-75
2023/11/27 02:55:21;;;;;;;16.08;10.30;;;-2.90;99.90;;;;;;5074226;28;20027;-75
2023/11/27 02:57:47;;;;;;;17.67;10.10;;;-2.90;99.90;;;;;;5075270;28;20461;-78
2023/11/27 03:00:13;;;;;;;21.35;10.52;;;-2.90;99.90;;;;;;5073966;28;20055;-78
2023/11/27 03:02:39;;;;;;;18.05;10.25;;;-2.90;99.90;;;;;;5075202;28;20060;-75
2023/11/27 03:05:08;;;;;;;15.18;10.40;;;-2.90;99.90;;;;;;5075236;28;20107;-75
2023/11/27 03:07:35;;;;;;;17.70;9.98;;;-2.90;99.90;;;;;;5073373;28;20059;-78
2023/11/27 03:10:01;;;;;;;18.85;10.52;;;-3.00;99.90;;;;;;5075144;28;20016;-75
2023/11/27 03:12:27;;;;;;;21.45;12.27;;;-2.90;99.90;;;;;;5074096;28;20074;-79
2023/11/27 03:14:52;;;;;;;22.25;11.43;;;-3.00;99.90;;;;;;5073540;28;20025;-75
2023/11/27 03:17:21;;;;;;;24.67;12.20;;;-2.90;99.90;;;;;;5073349;28;20021;-75
2023/11/27 03:19:46;;;;;;;19.33;10.75;;;-3.00;99.90;;;;;;5075009;28;20108;-76
2023/11/27 03:22:12;;;;;;;19.10;10.45;;;-3.00;99.90;;;;;;5074478;28;20462;-76
2023/11/27 03:24:38;;;;;;;21.20;11.85;;;-2.90;99.90;;;;;;5073639;28;20484;-75
2023/11/27 03:27:05;;;;;;;21.58;12.40;;;-3.00;99.90;;;;;;5072326;28;20032;-75
2023/11/27 03:29:31;;;;;;;20.33;12.07;;;-2.90;99.90;;;;;;5073332;28;20492;-75
2023/11/27 03:31:57;;;;;;;23.58;12.25;;;-2.90;99.90;;;;;;5072910;28;20115;-78
2023/11/27 03:34:22;;;;;;;22.75;11.45;;;-2.90;99.90;;;;;;5072765;28;20090;-79
2023/11/27 03:36:48;;;;;;;22.65;12.10;;;-2.90;99.90;;;;;;5074686;28;20024;-75
2023/11/27 03:39:14;;;;;;;20.85;12.18;;;-2.90;99.90;;;;;;5073163;28;20068;-79
2023/11/27 03:41:40;;;;;;;21.42;11.48;;;-2.90;99.90;;;;;;5074725;28;20036;-75
2023/11/27 03:44:08;;;;;;;18.98;11.75;;;-2.90;99.90;;;;;;5074271;28;20150;-79
2023/11/27 03:46:34;;;;;;;22.90;12.15;;;-2.90;99.90;;;;;;5072802;28;20074;-79
2023/11/27 03:49:00;;;;;;;24.20;12.00;;;-3.00;99.90;;;;;;5074165;28;20032;-75
2023/11/27 03:51:25;;;;;;;34.05;13.57;;;-3.00;99.90;;;;;;5073302;28;20024;-77
2023/11/27 03:53:51;;;;;;;24.40;12.77;;;-3.00;99.90;;;;;;5073994;28;20389;-80
2023/11/27 03:56:17;;;;;;;29.77;14.30;;;-3.00;99.90;;;;;;5074185;28;20021;-75
2023/11/27 03:58:42;;;;;;;24.33;13.43;;;-3.10;99.90;;;;;;5074078;28;20047;-78
2023/11/27 04:01:08;;;;;;;25.75;12.90;;;-3.00;99.90;;;;;;5072892;28;20027;-78
2023/11/27 04:03:37;;;;;;;24.92;13.88;;;-3.00;99.90;;;;;;5072664;28;20020;-76
2023/11/27 04:06:04;;;;;;;23.67;11.90;;;-3.10;99.90;;;;;;5072554;28;20019;-75
2023/11/27 04:08:30;;;;;;;24.58;13.60;;;-3.10;99.90;;;;;;5072793;28;20032;-75
2023/11/27 04:10:55;;;;;;;25.77;13.60;;;-3.10;99.90;;;;;;5073778;28;20017;-79
2023/11/27 04:13:21;;;;;;;26.13;13.98;;;-3.20;99.90;;;;;;5074184;28;20058;-79
2023/11/27 04:15:47;;;;;;;25.48;14.60;;;-3.10;99.90;;;;;;5073487;28;20086;-75
2023/11/27 04:18:12;;;;;;;29.00;14.38;;;-3.20;99.90;;;;;;5072410;28;20063;-79
2023/11/27 04:20:38;;;;;;;30.15;15.57;;;-3.10;99.90;;;;;;5072645;28;20082;-79
2023/11/27 04:23:04;;;;;;;25.13;14.32;;;-3.10;99.90;;;;;;5073547;28;20359;-78
2023/11/27 04:25:30;;;;;;;26.48;13.90;;;-3.10;99.90;;;;;;5073051;28;20024;-78
2023/11/27 04:27:57;;;;;;;26.60;14.15;;;-3.20;99.90;;;;;;5073857;28;20054;-75
2023/11/27 04:30:23;;;;;;;23.02;12.88;;;-3.10;99.90;;;;;;5072361;28;20441;-79
2023/11/27 04:32:48;;;;;;;28.42;15.23;;;-3.10;99.90;;;;;;5073508;28;20072;-78
2023/11/27 04:35:14;;;;;;;24.67;13.43;;;-3.10;99.90;;;;;;5073216;28;20069;-79
2023/11/27 04:37:40;;;;;;;29.40;14.75;;;-3.10;99.90;;;;;;5072143;28;20059;-79
2023/11/27 04:40:10;;;;;;;33.38;16.08;;;-3.10;99.90;;;;;;5071833;28;20034;-75
2023/11/27 04:42:39;;;;;;;29.92;15.13;;;-3.10;99.90;;;;;;5073656;28;20023;-75
2023/11/27 04:45:08;;;;;;;27.10;15.25;;;-3.10;99.90;;;;;;5071867;28;20020;-79
2023/11/27 04:47:35;;;;;;;25.67;15.13;;;-3.10;99.90;;;;;;5072034;28;20432;-79
2023/11/27 04:50:01;;;;;;;29.40;15.15;;;-3.10;99.90;;;;;;5073121;28;20113;-79
2023/11/27 04:52:27;;;;;;;29.70;16.00;;;-3.10;99.90;;;;;;5073152;28;20478;-78
2023/11/27 04:54:53;;;;;;;31.75;15.60;;;-3.10;99.90;;;;;;5071674;28;20055;-78
2023/11/27 04:57:21;;;;;;;30.27;16.45;;;-3.10;99.90;;;;;;5071968;28;20013;-76
2023/11/27 04:59:47;;;;;;;31.17;16.63;;;-3.10;99.90;;;;;;5072209;28;20386;-75
2023/11/27 05:02:13;;;;;;;31.90;16.60;;;-3.10;99.90;;;;;;5071723;28;20024;-79
2023/11/27 05:04:41;;;;;;;36.20;16.00;;;-3.10;99.90;;;;;;5071782;28;20020;-75
2023/11/27 05:07:06;;;;;;;31.40;15.15;;;-3.10;99.90;;;;;;5071674;28;20009;-79
2023/11/27 05:09:33;;;;;;;32.13;16.10;;;-3.00;99.90;;;;;;5071545;28;20025;-75
2023/11/27 05:11:59;;;;;;;28.40;16.52;;;-3.00;99.90;;;;;;5071722;28;20066;-75
2023/11/27 05:14:24;;;;;;;31.48;16.45;;;-3.00;99.90;;;;;;5071403;28;20017;-76
2023/11/27 05:16:52;;;;;;;31.80;17.40;;;-3.00;99.90;;;;;;5071554;28;20024;-79
2023/11/27 05:19:18;;;;;;;34.33;17.73;;;-3.00;99.90;;;;;;5072085;28;20074;-75
2023/11/27 05:21:44;;;;;;;32.75;16.40;;;-3.00;99.90;;;;;;5071597;28;20031;-79
2023/11/27 05:24:10;;;;;;;34.17;17.45;;;-3.10;99.90;;;;;;5071179;28;20444;-75
2023/11/27 05:26:35;;;;;;;31.25;17.05;;;-3.00;99.90;;;;;;5071840;28;20028;-75
2023/11/27 05:29:01;;;;;;;36.58;18.02;;;-3.00;99.90;;;;;;5072670;28;20470;-79
2023/11/27 05:31:27;;;;;;;33.20;16.08;;;-3.00;99.90;;;;;;5072442;28;20057;-79
2023/11/27 05:33:52;;;;;;;34.90;20.20;;;-3.00;99.90;;;;;;5072724;28;20019;-79
2023/11/27 05:36:18;;;;;;;28.90;15.98;;;-3.00;99.90;;;;;;5072311;28;20363;-75
2023/11/27 05:38:44;;;;;;;33.05;18.48;;;-3.00;99.90;;;;;;5070978;28;20028;-75
2023/11/27 05:41:12;;;;;;;31.73;16.85;;;-3.00;99.90;;;;;;5072442;28;20035;-79
2023/11/27 05:43:38;;;;;;;29.45;17.00;;;-3.00;99.90;;;;;;5075373;28;20021;-79
2023/11/27 05:46:04;;;;;;;97.40;39.42;;;-3.00;99.90;;;;;;5072591;28;20028;-79
2023/11/27 05:48:30;;;;;;;40.65;20.23;;;-3.10;99.90;;;;;;5072313;28;20032;-79
2023/11/27 05:50:56;;;;;;;32.45;16.25;;;-3.20;99.90;;;;;;5072513;28;20024;-79
2023/11/27 05:53:22;;;;;;;26.27;16.20;;;-3.20;99.90;;;;;;5070971;28;20036;-75
2023/11/27 05:55:48;;;;;;;75.05;31.73;;;-3.20;99.90;;;;;;5071281;28;20021;-75
2023/11/27 05:58:14;;;;;;;35.22;18.48;;;-3.20;99.90;;;;;;5071869;28;20040;-75
2023/11/27 06:00:40;;;;;;;37.42;18.50;;;-3.20;99.90;;;;;;5070682;28;20035;-75
2023/11/27 06:03:07;;;;;;;30.48;16.88;;;-3.20;99.90;;;;;;5072101;28;20017;-77
2023/11/27 06:05:34;;;;;;;31.80;16.80;;;-3.30;99.90;;;;;;5070189;28;20017;-79
2023/11/27 06:08:00;;;;;;;32.88;18.08;;;-3.30;99.90;;;;;;5068459;28;20111;-79
2023/11/27 06:10:26;;;;;;;27.33;15.38;;;-3.30;99.90;;;;;;5069715;28;20123;-79
2023/11/27 06:12:52;;;;;;;35.88;17.27;;;-3.30;99.90;;;;;;5072078;28;20016;-79
2023/11/27 06:15:17;;;;;;;35.63;17.83;;;-3.30;99.90;;;;;;5054371;28;20372;-78
2023/11/27 06:17:46;;;;;;;30.52;16.67;;;-3.30;99.90;;;;;;5069220;28;20036;-75
2023/11/27 06:20:14;;;;;;;30.55;16.73;;;-3.30;99.90;;;;;;5061068;28;20036;-76
2023/11/27 06:22:39;;;;;;;38.60;18.25;;;-3.30;99.90;;;;;;5070832;28;20033;-79
2023/11/27 06:25:09;;;;;;;39.25;18.75;;;-3.40;99.90;;;;;;5071567;28;20028;-75
2023/11/27 06:27:35;;;;;;;42.33;20.00;;;-3.40;99.90;;;;;;5068320;28;20029;-75
2023/11/27 06:30:02;;;;;;;33.83;18.60;;;-3.30;99.90;;;;;;5069566;28;20024;-75
2023/11/27 06:32:28;;;;;;;40.85;21.00;;;-3.40;99.90;;;;;;5071610;28;20079;-75
2023/11/27 06:34:53;;;;;;;43.13;22.48;;;-3.30;99.90;;;;;;5083257;28;20045;-75
2023/11/27 06:37:19;;;;;;;41.85;21.83;;;-3.30;99.90;;;;;;5071547;28;20035;-79
2023/11/27 06:39:47;;;;;;;45.80;22.40;;;-3.30;99.90;;;;;;5071780;28;20078;-75
2023/11/27 06:42:14;;;;;;;39.70;22.58;;;-3.30;99.90;;;;;;5070106;28;20021;-75
2023/11/27 06:44:40;;;;;;;44.15;22.52;;;-3.30;99.90;;;;;;5070208;28;20024;-76
2023/11/27 06:47:07;;;;;;;41.22;23.58;;;-3.30;99.90;;;;;;5071117;28;20025;-75
2023/11/27 06:49:33;;;;;;;43.47;21.60;;;-3.30;99.90;;;;;;5075528;28;20070;-79
2023/11/27 06:51:59;;;;;;;47.58;25.00;;;-3.30;99.90;;;;;;5074370;28;20017;-75
2023/11/27 06:54:25;;;;;;;40.33;21.73;;;-3.30;99.90;;;;;;5073979;28;20021;-79
2023/11/27 06:56:52;;;;;;;44.35;21.90;;;-3.30;99.90;;;;;;5073864;28;20016;-75
2023/11/27 06:59:21;;;;;;;48.45;22.52;;;-3.30;99.90;;;;;;5073811;28;20032;-75
2023/11/27 07:01:46;;;;;;;45.33;23.15;;;-3.30;99.90;;;;;;5075051;28;20077;-75
2023/11/27 07:04:12;;;;;;;42.97;21.40;;;-3.30;99.90;;;;;;5073757;28;20384;-75
2023/11/27 07:06:39;;;;;;;80.78;36.15;;;-3.30;99.90;;;;;;5069080;28;20013;-79
2023/11/27 07:09:06;;;;;;;110.32;44.08;;;-3.30;99.90;;;;;;5072839;28;20449;-79
2023/11/27 07:11:32;;;;;;;128.00;50.33;;;-3.20;99.90;;;;;;5072797;28;20066;-75
2023/11/27 07:13:59;;;;;;;142.90;55.42;;;-3.20;99.90;;;;;;5071618;28;20466;-75
2023/11/27 07:16:26;;;;;;;92.88;36.58;;;-3.10;99.90;;;;;;5071285;28;20016;-75
2023/11/27 07:18:52;;;;;;;49.80;23.67;;;-3.20;99.90;;;;;;5071448;28;20033;-75
2023/11/27 07:21:18;;;;;;;42.67;22.42;;;-3.10;99.90;;;;;;5073818;28;20386;-75
2023/11/27 07:23:44;;;;;;;38.38;19.02;;;-3.10;99.90;;;;;;5073741;28;20024;-75
2023/11/27 07:26:10;;;;;;;34.92;17.98;;;-3.00;99.90;;;;;;5073777;28;20032;-75
2023/11/27 07:28:42;;;;;;;43.58;19.45;;;-2.90;99.90;;;;;;5073199;28;20021;-75
2023/11/27 07:31:09;;;;;;;42.10;19.23;;;-2.90;99.90;;;;;;5072807;28;20074;-75
2023/11/27 07:33:36;;;;;;;33.22;17.77;;;-2.90;99.90;;;;;;5065199;28;20013;-76
2023/11/27 07:36:01;;;;;;;31.10;15.95;;;-2.80;99.90;;;;;;5071629;28;20119;-75
2023/11/27 07:38:28;;;;;;;27.23;14.70;;;-2.80;99.90;;;;;;5072412;28;20119;-79
2023/11/27 07:40:56;;;;;;;26.33;15.00;;;-2.70;99.90;;;;;;5073228;28;20417;-79
2023/11/27 07:43:21;;;;;;;28.45;15.55;;;-2.70;99.90;;;;;;5073755;28;20375;-79
2023/11/27 07:45:47;;;;;;;82.95;36.33;;;-2.60;99.90;;;;;;5074548;28;20028;-79
2023/11/27 07:48:13;;;;;;;45.42;20.38;;;-2.60;99.90;;;;;;5071851;28;20474;-75
2023/11/27 07:50:39;;;;;;;27.10;15.85;;;-2.60;99.90;;;;;;5072215;28;20378;-79
2023/11/27 07:53:05;;;;;;;24.85;14.30;;;-2.50;99.90;;;;;;5074109;28;20054;-79
2023/11/27 07:55:32;;;;;;;24.48;13.98;;;-2.50;99.90;;;;;;5072503;28;20454;-79
2023/11/27 07:57:57;;;;;;;29.83;13.98;;;-2.50;99.90;;;;;;5072108;28;20047;-79
2023/11/27 08:00:26;;;;;;;26.17;13.77;;;-2.40;99.90;;;;;;5073987;28;20100;-79
2023/11/27 08:02:53;;;;;;;26.98;14.57;;;-2.50;99.90;;;;;;5074014;28;20016;-79
2023/11/27 08:05:20;;;;;;;24.38;14.45;;;-2.40;99.90;;;;;;5072513;28;20021;-79
2023/11/27 08:07:47;;;;;;;32.22;16.45;;;-2.40;99.90;;;;;;5072350;28;20056;-77
2023/11/27 08:10:15;;;;;;;27.75;14.68;;;-2.40;99.90;;;;;;5072611;28;20074;-75
2023/11/27 08:12:42;;;;;;;36.53;16.85;;;-2.40;99.90;;;;;;5072471;28;20112;-75
2023/11/27 08:15:08;;;;;;;29.70;16.77;;;-2.30;99.90;;;;;;5073899;28;20017;-79
2023/11/27 08:17:34;;;;;;;29.83;16.77;;;-2.30;99.90;;;;;;5073020;28;20467;-79
2023/11/27 08:20:04;;;;;;;27.30;14.45;;;-2.30;99.90;;;;;;5073530;28;20029;-79
2023/11/27 08:22:30;;;;;;;29.10;15.82;;;-2.30;99.90;;;;;;5070444;28;20024;-76
2023/11/27 08:24:57;;;;;;;29.42;16.98;;;-2.30;99.90;;;;;;5071149;28;20091;-75
2023/11/27 08:27:26;;;;;;;39.15;18.05;;;-2.30;99.90;;;;;;5072233;28;20466;-75
2023/11/27 08:29:52;;;;;;;31.70;15.98;;;-2.30;99.90;;;;;;5070801;28;20019;-75
2023/11/27 08:32:19;;;;;;;37.00;17.50;;;-2.30;99.90;;;;;;5070886;28;20738;-79
2023/11/27 08:34:44;;;;;;;35.00;17.45;;;-2.30;99.90;;;;;;5073281;28;20025;-75
2023/11/27 08:37:16;;;;;;;29.00;15.30;;;-2.30;99.90;;;;;;5071886;28;20406;-79
2023/11/27 08:39:43;;;;;;;30.10;14.25;;;-2.30;99.90;;;;;;5072294;28;20043;-79
2023/11/27 08:42:08;;;;;;;29.08;13.27;;;-2.40;99.90;;;;;;5073203;28;20036;-77
2023/11/27 08:44:34;;;;;;;22.27;12.68;;;-2.40;99.90;;;;;;5073355;28;20024;-75
2023/11/27 08:47:00;;;;;;;19.67;12.77;;;-2.50;99.90;;;;;;5072467;28;20024;-75
2023/11/27 08:49:25;;;;;;;21.52;12.43;;;-2.50;99.90;;;;;;5072122;28;20063;-79
2023/11/27 08:51:51;;;;;;;32.13;15.32;;;-2.50;99.90;;;;;;5072735;28;20035;-79
2023/11/27 08:54:17;;;;;;;28.55;15.40;;;-2.50;99.90;;;;;;5071585;28;20074;-75
2023/11/27 08:56:43;;;;;;;23.80;13.85;;;-2.40;99.90;;;;;;5070552;28;20016;-75
2023/11/27 08:59:10;;;;;;;23.23;14.02;;;-2.40;99.90;;;;;;5057896;28;20044;-75
2023/11/27 09:01:36;;;;;;;21.05;12.40;;;-2.20;99.90;;;;;;5065712;28;20104;-77
2023/11/27 09:04:02;;;;;;;21.73;13.00;;;-2.10;99.90;;;;;;5063559;28;20474;-75
2023/11/27 09:06:29;;;;;;;21.30;11.68;;;-2.00;99.90;;;;;;5068176;28;20032;-75
2023/11/27 09:08:54;;;;;;;21.52;11.50;;;-2.00;99.90;;;;;;5067267;28;20044;-76
2023/11/27 09:11:20;;;;;;;25.80;11.52;;;-2.00;99.90;;;;;;5069325;28;20028;-76
2023/11/27 09:13:46;;;;;;;20.38;10.73;;;-1.80;99.90;;;;;;5068113;28;20032;-76
2023/11/27 09:16:12;;;;;;;22.77;11.57;;;-1.80;99.90;;;;;;5070661;28;20029;-76
2023/11/27 09:18:38;;;;;;;30.70;13.77;;;-1.80;99.90;;;;;;5069720;28;20447;-76
2023/11/27 09:21:04;;;;;;;22.98;12.30;;;-1.70;99.90;;;;;;5069910;28;20016;-76
2023/11/27 09:23:30;;;;;;;18.23;10.23;;;-1.70;99.90;;;;;;5069606;28;20056;-76
2023/11/27 09:25:55;;;;;;;21.48;11.95;;;-1.60;99.90;;;;;;5072000;28;20024;-79
2023/11/27 09:28:22;;;;;;;22.38;11.45;;;-1.50;99.90;;;;;;5069700;28;20043;-79
2023/11/27 09:30:49;;;;;;;24.90;11.48;;;-1.50;99.90;;;;;;5071338;28;20021;-79
2023/11/27 09:33:15;;;;;;;23.30;11.68;;;-1.40;99.90;;;;;;5069685;28;20044;-79
2023/11/27 09:35:41;;;;;;;20.75;10.55;;;-1.30;99.90;;;;;;5065408;28;20016;-79
2023/11/27 09:38:08;;;;;;;16.52;10.85;;;-1.20;99.90;;;;;;5070561;28;20422;-76
2023/11/27 09:40:40;;;;;;;25.60;11.48;;;-1.10;99.90;;;;;;5071285;28;20450;-76
2023/11/27 09:43:06;;;;;;;20.48;11.18;;;-0.80;99.90;;;;;;5067882;28;20088;-76
2023/11/27 09:45:32;;;;;;;22.95;10.93;;;-0.80;99.90;;;;;;5071393;28;20041;-74
2023/11/27 09:47:58;;;;;;;18.20;10.13;;;-1.00;99.90;;;;;;5071255;28;20083;-75
2023/11/27 09:50:28;;;;;;;14.75;9.75;;;-1.00;99.90;;;;;;5070286;28;20120;-75
2023/11/27 09:53:05;;;;;;;15.88;9.27;;;-1.20;99.90;;;;;;5070030;28;20470;-74
2023/11/27 09:55:38;;;;;;;23.42;12.30;;;-1.30;99.90;;;;;;5069606;28;20032;-74
2023/11/27 09:58:05;;;;;;;;;;;-1.40;99.90;;;;;;5069290;28;20086;-75
2023/11/27 10:00:31;;;;;;;20.15;12.40;;;-1.50;99.90;;;;;;5071550;28;19912;-74
2023/11/27 10:02:58;;;;;;;19.25;10.88;;;-1.40;99.90;;;;;;5070312;28;20013;-75
2023/11/27 10:05:24;;;;;;;63.00;35.42;;;-1.30;99.90;;;;;;5071511;28;20466;-75
2023/11/27 10:07:51;;;;;;;45.80;25.23;;;-1.30;99.90;;;;;;5071512;28;20025;-75
2023/11/27 10:10:27;;;;;;;51.42;29.42;;;-1.30;99.90;;;;;;5070353;28;20048;-74
2023/11/27 10:12:59;;;;;;;32.30;17.98;;;-1.20;99.90;;;;;;5069604;28;20009;-74
2023/11/27 10:15:28;;;;;;;13.55;9.10;;;-1.20;99.90;;;;;;5069942;28;20035;-74
2023/11/27 10:17:59;;;;;;;14.30;7.43;;;-1.20;99.90;;;;;;5071296;28;20486;-74
2023/11/27 10:20:26;;;;;;;14.20;10.50;;;-1.20;99.90;;;;;;5069890;28;20609;-74
2023/11/27 10:22:55;;;;;;;13.95;8.75;;;-1.20;99.90;;;;;;5070737;28;20021;-77
2023/11/27 10:25:21;;;;;;;15.43;10.45;;;-1.30;99.90;;;;;;5073009;28;20374;-75
2023/11/27 10:27:46;;;;;;;16.58;8.40;;;-1.20;99.90;;;;;;5067593;28;20024;-74
2023/11/27 10:30:25;;;;;;;12.00;8.93;;;-1.20;99.90;;;;;;5060794;28;20025;-74
2023/11/27 10:32:52;;;;;;;10.07;5.82;;;-1.30;99.90;;;;;;5074640;28;20059;-78
2023/11/27 10:35:20;;;;;;;13.02;8.75;;;-1.20;98.40;;;;;;5073081;28;20013;-78
2023/11/27 10:37:49;;;;;;;12.07;7.38;;;-1.10;97.60;;;;;;5072540;28;20025;-75
2023/11/27 10:40:16;;;;;;;9.82;6.65;;;-1.00;97.20;;;;;;5073572;28;20012;-75
2023/11/27 10:42:48;;;;;;;11.10;7.30;;;-0.90;95.60;;;;;;5072590;28;20029;-79
2023/11/27 10:45:18;;;;;;;9.50;6.65;;;-0.80;96.00;;;;;;5073020;28;20017;-78
2023/11/27 10:47:46;;;;;;;14.85;8.00;;;-0.60;96.80;;;;;;5072790;28;20029;-75
2023/11/27 10:50:16;;;;;;;18.65;10.48;;;-0.60;94.80;;;;;;5074217;28;20024;-78
2023/11/27 10:52:44;;;;;;;16.00;10.45;;;-0.40;94.40;;;;;;5074245;28;20024;-75
2023/11/27 10:55:15;;;;;;;27.80;14.95;;;-0.50;91.70;;;;;;5075180;28;20024;-75
2023/11/27 10:57:44;;;;;;;58.88;22.65;;;-0.50;90.10;;;;;;5074087;28;20040;-75
2023/11/27 11:00:14;;;;;;;15.75;8.07;;;-0.50;89.30;;;;;;5074067;28;20027;-76
2023/11/27 11:02:48;;;;;;;8.35;5.88;;;-0.50;89.00;;;;;;5074001;28;20020;-79
2023/11/27 11:05:26;;;;;;;17.60;9.43;;;-0.50;86.80;;;;;;5062889;28;20025;-75
2023/11/27 11:07:55;;;;;;;29.73;13.18;;;-0.50;86.40;;;;;;5073826;28;20103;-79
2023/11/27 11:10:26;;;;;;;27.73;14.20;;;-0.60;85.70;;;;;;5075302;28;20028;-78
2023/11/27 11:12:54;;;;;;;49.10;18.98;;;-0.50;86.40;;;;;;5075188;28;20047;-76
2023/11/27 11:15:36;;;;;;;39.95;15.27;;;-0.60;86.00;;;;;;5073813;28;20111;-76
2023/11/27 11:18:11;;;;;;;24.23;10.00;;;-0.50;86.40;;;;;;5073829;28;20037;-75
2023/11/27 11:21:02;;;;;;;11.60;5.93;;;-0.60;86.00;;;;;;5075085;28;20055;-76
2023/11/27 11:24:15;;;;;;;13.02;6.65;;;-0.60;84.80;;;;;;5073834;28;20068;-78
2023/11/27 11:27:07;;;;;;;12.80;6.78;;;-0.60;85.30;;;;;;4992632;28;20026;-75
2023/11/27 11:29:36;;;;;;;10.75;5.65;;;-0.70;85.10;;;;;;5012840;28;20545;-75
2023/11/27 11:32:05;;;;;;;14.23;7.18;;;-0.70;84.70;;;;;;5057261;28;20463;-75
2023/11/27 11:34:36;;;;;;;36.63;13.93;;;-0.70;85.00;;;;;;5073979;28;20419;-75
2023/11/27 11:37:05;;;;;;;29.27;10.35;;;-0.70;84.40;;;;;;5074114;28;20016;-74
2023/11/27 11:39:32;;;;;;;14.52;6.32;;;-0.70;84.70;;;;;;5072899;28;20486;-74
2023/11/27 11:42:03;;;;;;;15.15;7.85;;;-0.80;84.10;;;;;;5072841;28;20029;-75
2023/11/27 11:44:35;;;;;;;12.98;6.70;;;-0.90;84.30;;;;;;5071301;28;20116;-74
2023/11/27 11:47:33;;;;;;;177.40;75.95;;;-0.90;83.90;;;;;;5073470;28;20035;-74
2023/11/27 11:50:17;;;;;;;16.75;9.48;;;-0.90;83.50;;;;;;5069950;28;20393;-74
2023/11/27 11:52:43;;;;;;;15.30;7.13;;;-0.90;81.40;;;;;;5072318;28;20421;-74
2023/11/27 11:55:25;;;;;;;16.30;8.10;;;-1.00;81.30;;;;;;5066173;28;20035;-74
2023/11/27 11:57:53;;;;;;;17.98;8.75;;;-0.90;81.10;;;;;;5070054;28;20397;-74
2023/11/27 12:00:22;;;;;;;17.88;9.52;;;-0.90;81.20;;;;;;5072015;28;20017;-74
2023/11/27 12:02:55;;;;;;;20.48;8.38;;;-0.90;81.00;;;;;;5066130;28;20036;-74
2023/11/27 12:05:25;;;;;;;20.95;9.70;;;-0.90;81.00;;;;;;5068052;28;20075;-74
2023/11/27 12:07:51;;;;;;;114.70;51.95;;;-0.90;80.70;;;;;;5071090;28;20033;-74
2023/11/27 12:10:17;;;;;;;102.70;36.28;;;-0.90;81.20;;;;;;5065011;28;20071;-74
2023/11/27 12:12:52;;;;;;;69.35;25.30;;;-0.90;80.80;;;;;;5062274;28;20513;-74
2023/11/27 12:15:19;;;;;;;28.02;13.93;;;-0.90;80.20;;;;;;5057857;28;20037;-74
2023/11/27 12:17:50;;;;;;;30.63;13.55;;;-0.90;80.10;;;;;;5062477;28;20968;-74
2023/11/27 12:20:21;;;;;;;22.02;12.45;;;-0.90;79.80;;;;;;5069526;28;20485;-74
2023/11/27 12:22:48;;;;;;;21.00;10.45;;;-0.90;80.10;;;;;;5072315;28;20127;-74
2023/11/27 12:25:18;;;;;;;33.50;14.55;;;-0.90;80.10;;;;;;5069996;28;20521;-74
2023/11/27 12:27:44;;;;;;;179.60;74.30;;;-0.80;80.80;;;;;;5070535;28;20060;-74
2023/11/27 12:30:12;;;;;;;90.60;40.90;;;-0.80;81.80;;;;;;5069900;28;20044;-74